TimePST,TemperatureF,Dew PointF,Humidity,Sea Level PressureIn,VisibilityMPH,Wind Direction,Wind SpeedMPH,Gust SpeedMPH,PrecipitationIn,Events,Conditions,WindDirDegrees,DateUTC
12:56 AM,54.0,17.1,23,30.18,10.0,SSW,8.1,-,N/A,,Clear,210,2012-11-05 08:56:00
1:56 AM,51.1,16.0,25,30.19,10.0,SSW,5.8,-,N/A,,Clear,200,2012-11-05 09:56:00
2:56 AM,46.9,16.0,29,30.17,10.0,South,3.5,-,N/A,,Clear,190,2012-11-05 10:56:00
3:56 AM,50.0,16.0,26,30.18,10.0,Variable,4.6,-,N/A,,Clear,0,2012-11-05 11:56:00
4:56 AM,45.0,15.1,30,30.19,10.0,Calm,Calm,-,N/A,,Clear,0,2012-11-05 12:56:00
5:56 AM,44.1,14.0,30,30.20,10.0,North,3.5,-,N/A,,Clear,10,2012-11-05 13:56:00
6:56 AM,51.1,16.0,25,30.22,10.0,Variable,3.5,-,N/A,,Clear,0,2012-11-05 14:56:00
7:56 AM,66.0,18.0,16,30.22,10.0,South,5.8,-,N/A,,Clear,190,2012-11-05 15:56:00
8:56 AM,72.0,18.0,13,30.22,10.0,Calm,Calm,-,N/A,,Clear,0,2012-11-05 16:56:00
9:56 AM,77.0,19.0,11,30.21,10.0,Variable,4.6,-,N/A,,Clear,0,2012-11-05 17:56:00
10:56 AM,80.1,19.9,11,30.19,10.0,SE,5.8,-,N/A,,Clear,130,2012-11-05 18:56:00
11:56 AM,82.0,21.9,11,30.16,10.0,Calm,Calm,-,N/A,,Clear,0,2012-11-05 19:56:00
12:56 PM,84.0,23.0,11,30.13,10.0,SE,6.9,-,N/A,,Clear,140,2012-11-05 20:56:00
1:56 PM,84.0,24.1,11,30.10,10.0,Calm,Calm,-,N/A,,Clear,0,2012-11-05 21:56:00
2:56 PM,84.9,26.1,12,30.10,10.0,Calm,Calm,-,N/A,,Clear,0,2012-11-05 22:56:00
3:56 PM,84.0,27.0,13,30.09,10.0,ESE,6.9,-,N/A,,Clear,110,2012-11-05 23:56:00
4:56 PM,77.0,27.0,16,30.10,10.0,SSE,4.6,-,N/A,,Clear,150,2012-11-06 00:56:00
5:56 PM,69.1,25.0,19,30.13,10.0,Calm,Calm,-,N/A,,Clear,0,2012-11-06 01:56:00
6:56 PM,64.9,24.1,21,30.14,10.0,SW,5.8,-,N/A,,Clear,230,2012-11-06 02:56:00
7:56 PM,63.0,24.1,23,30.12,10.0,SSW,9.2,-,N/A,,Clear,210,2012-11-06 03:56:00
8:56 PM,62.1,24.1,23,30.12,10.0,SSW,8.1,-,N/A,,Clear,210,2012-11-06 04:56:00
9:56 PM,61.0,25.0,25,30.12,10.0,SSW,8.1,-,N/A,,Clear,210,2012-11-06 05:56:00
10:56 PM,59.0,25.0,27,30.12,10.0,SW,5.8,-,N/A,,Clear,220,2012-11-06 06:56:00
11:56 PM,59.0,25.0,27,30.11,10.0,SW,10.4,-,N/A,,Clear,220,2012-11-06 07:56:00